sensor_id;sensor_type;location;lat;lon;timestamp;noise_LAeq;noise_LA_min;noise_LA_max;noise_LA01;noise_LA95
66589;Laerm;53447;49.272;11.070;2022-11-13T00:00:19;42.34;40.03;50.48;;
66589;Laerm;53447;49.272;11.070;2022-11-13T00:02:44;42.53;40.25;44.16;;
66589;Laerm;53447;49.272;11.070;2022-11-13T00:05:09;42.13;39.80;48.92;;
66589;Laerm;53447;49.272;11.070;2022-11-13T00:07:34;47.05;40.59;58.42;;
66589;Laerm;53447;49.272;11.070;2022-11-13T00:10:00;42.38;39.88;44.49;;
66589;Laerm;53447;49.272;11.070;2022-11-13T00:12:25;41.74;39.48;43.67;;
66589;Laerm;53447;49.272;11.070;2022-11-13T00:14:50;41.69;39.12;43.37;;
66589;Laerm;53447;49.272;11.070;2022-11-13T00:17:15;41.77;38.73;43.57;;
66589;Laerm;53447;49.272;11.070;2022-11-13T00:19:40;42.39;39.96;46.95;;
66589;Laerm;53447;49.272;11.070;2022-11-13T00:22:06;41.62;38.83;44.25;;
66589;Laerm;53447;49.272;11.070;2022-11-13T00:24:31;41.36;38.63;44.44;;
66589;Laerm;53447;49.272;11.070;2022-11-13T00:26:56;41.67;38.93;43.77;;
66589;Laerm;53447;49.272;11.070;2022-11-13T00:29:21;42.70;40.18;44.60;;
66589;Laerm;53447;49.272;11.070;2022-11-13T00:31:47;42.48;39.72;44.07;;
66589;Laerm;53447;49.272;11.070;2022-11-13T00:34:12;42.11;40.18;44.80;;
66589;Laerm;53447;49.272;11.070;2022-11-13T00:36:37;42.31;39.96;46.55;;
66589;Laerm;53447;49.272;11.070;2022-11-13T00:39:02;42.14;39.39;44.19;;
66589;Laerm;53447;49.272;11.070;2022-11-13T00:41:27;41.93;39.64;45.21;;
66589;Laerm;53447;49.272;11.070;2022-11-13T00:43:53;42.16;39.56;44.70;;
66589;Laerm;53447;49.272;11.070;2022-11-13T00:46:18;41.75;39.39;43.98;;
66589;Laerm;53447;49.272;11.070;2022-11-13T00:48:43;42.55;39.96;45.41;;
66589;Laerm;53447;49.272;11.070;2022-11-13T00:51:09;42.24;40.03;43.95;;
66589;Laerm;53447;49.272;11.070;2022-11-13T00:53:34;42.27;39.64;44.22;;
66589;Laerm;53447;49.272;11.070;2022-11-13T00:55:59;43.15;41.03;45.84;;
66589;Laerm;53447;49.272;11.070;2022-11-13T00:58:25;42.46;39.03;49.39;;
66589;Laerm;53447;49.272;11.070;2022-11-13T01:00:50;41.50;38.83;43.45;;
66589;Laerm;53447;49.272;11.070;2022-11-13T01:03:16;42.06;39.21;44.33;;
66589;Laerm;53447;49.272;11.070;2022-11-13T01:05:42;42.47;40.11;44.57;;
66589;Laerm;53447;49.272;11.070;2022-11-13T01:08:09;42.44;40.03;45.76;;
66589;Laerm;53447;49.272;11.070;2022-11-13T01:10:37;44.23;41.38;49.67;;
66589;Laerm;53447;49.272;11.070;2022-11-13T01:13:02;43.33;40.25;47.05;;
66589;Laerm;53447;49.272;11.070;2022-11-13T01:15:27;42.83;39.56;48.46;;
66589;Laerm;53447;49.272;11.070;2022-11-13T01:17:53;42.41;40.18;43.83;;
66589;Laerm;53447;49.272;11.070;2022-11-13T01:20:19;42.52;40.25;43.89;;
66589;Laerm;53447;49.272;11.070;2022-11-13T01:22:44;42.49;40.72;44.39;;
66589;Laerm;53447;49.272;11.070;2022-11-13T01:25:10;42.48;39.56;44.04;;
66589;Laerm;53447;49.272;11.070;2022-11-13T01:27:35;43.46;39.76;53.55;;
66589;Laerm;53447;49.272;11.070;2022-11-13T01:30:01;43.16;41.15;46.34;;
66589;Laerm;53447;49.272;11.070;2022-11-13T01:32:26;42.57;40.50;44.07;;
66589;Laerm;53447;49.272;11.070;2022-11-13T01:34:51;41.99;38.20;44.01;;
66589;Laerm;53447;49.272;11.070;2022-11-13T01:37:16;42.08;39.12;43.92;;
66589;Laerm;53447;49.272;11.070;2022-11-13T01:39:42;42.39;39.39;44.01;;
66589;Laerm;53447;49.272;11.070;2022-11-13T01:42:07;42.71;40.53;45.50;;
66589;Laerm;53447;49.272;11.070;2022-11-13T01:47:12;42.58;40.32;45.26;;
66589;Laerm;53447;49.272;11.070;2022-11-13T01:49:38;43.07;39.96;46.05;;
66589;Laerm;53447;49.272;11.070;2022-11-13T01:52:12;42.47;39.72;45.07;;
66589;Laerm;53447;49.272;11.070;2022-11-13T01:54:40;41.05;38.20;42.93;;
66589;Laerm;53447;49.272;11.070;2022-11-13T01:57:07;41.05;37.31;43.47;;
66589;Laerm;53447;49.272;11.070;2022-11-13T01:59:35;41.65;38.08;44.13;;
66589;Laerm;53447;49.272;11.070;2022-11-13T02:02:03;41.92;38.83;45.09;;
66589;Laerm;53447;49.272;11.070;2022-11-13T02:04:28;41.68;39.03;44.44;;
66589;Laerm;53447;49.272;11.070;2022-11-13T02:06:55;41.90;39.64;44.01;;
66589;Laerm;53447;49.272;11.070;2022-11-13T02:09:23;42.27;39.12;43.80;;
66589;Laerm;53447;49.272;11.070;2022-11-13T02:11:49;43.12;41.19;45.12;;
66589;Laerm;53447;49.272;11.070;2022-11-13T02:14:14;42.69;40.39;44.60;;
66589;Laerm;53447;49.272;11.070;2022-11-13T02:16:42;41.56;38.93;43.30;;
66589;Laerm;53447;49.272;11.070;2022-11-13T02:19:12;41.36;38.42;43.44;;
66589;Laerm;53447;49.272;11.070;2022-11-13T02:24:35;42.68;40.03;45.86;;
66589;Laerm;53447;49.272;11.070;2022-11-13T02:27:03;42.18;39.30;44.75;;
66589;Laerm;53447;49.272;11.070;2022-11-13T02:29:29;41.97;38.53;46.70;;
66589;Laerm;53447;49.272;11.070;2022-11-13T02:31:55;42.86;40.79;45.90;;
66589;Laerm;53447;49.272;11.070;2022-11-13T02:34:20;42.60;40.59;45.26;;
66589;Laerm;53447;49.272;11.070;2022-11-13T02:36:46;42.31;39.21;43.95;;
66589;Laerm;53447;49.272;11.070;2022-11-13T02:39:11;41.53;38.53;43.67;;
66589;Laerm;53447;49.272;11.070;2022-11-13T02:41:37;42.19;38.83;44.78;;
66589;Laerm;53447;49.272;11.070;2022-11-13T02:44:03;41.84;39.30;43.30;;
66589;Laerm;53447;49.272;11.070;2022-11-13T02:46:29;41.28;38.68;43.92;;
66589;Laerm;53447;49.272;11.070;2022-11-13T02:48:54;40.83;37.58;45.29;;
66589;Laerm;53447;49.272;11.070;2022-11-13T02:51:19;41.20;38.93;43.44;;
66589;Laerm;53447;49.272;11.070;2022-11-13T02:53:44;41.04;38.31;43.04;;
66589;Laerm;53447;49.272;11.070;2022-11-13T02:56:09;42.03;38.83;43.77;;
66589;Laerm;53447;49.272;11.070;2022-11-13T02:58:35;42.49;40.79;44.39;;
66589;Laerm;53447;49.272;11.070;2022-11-13T03:01:01;42.37;40.25;43.70;;
66589;Laerm;53447;49.272;11.070;2022-11-13T03:03:27;41.32;37.58;43.33;;
66589;Laerm;53447;49.272;11.070;2022-11-13T03:05:52;41.83;38.93;43.86;;
66589;Laerm;53447;49.272;11.070;2022-11-13T03:08:18;41.67;37.84;43.70;;
66589;Laerm;53447;49.272;11.070;2022-11-13T03:10:44;40.79;36.97;42.61;;
66589;Laerm;53447;49.272;11.070;2022-11-13T03:13:09;41.21;37.73;43.44;;
66589;Laerm;53447;49.272;11.070;2022-11-13T03:15:34;40.75;37.96;42.31;;
66589;Laerm;53447;49.272;11.070;2022-11-13T03:18:03;40.87;38.42;42.53;;
66589;Laerm;53447;49.272;11.070;2022-11-13T03:20:29;41.76;38.93;43.44;;
66589;Laerm;53447;49.272;11.070;2022-11-13T03:22:54;42.37;40.59;44.63;;
66589;Laerm;53447;49.272;11.070;2022-11-13T03:25:19;42.43;40.59;44.57;;
66589;Laerm;53447;49.272;11.070;2022-11-13T03:27:45;41.66;37.84;43.73;;
66589;Laerm;53447;49.272;11.070;2022-11-13T03:30:10;41.32;38.20;43.12;;
66589;Laerm;53447;49.272;11.070;2022-11-13T03:32:35;41.20;38.31;43.08;;
66589;Laerm;53447;49.272;11.070;2022-11-13T03:35:01;41.07;37.02;43.54;;
66589;Laerm;53447;49.272;11.070;2022-11-13T03:37:26;41.12;37.02;43.61;;
66589;Laerm;53447;49.272;11.070;2022-11-13T03:39:51;41.81;38.83;45.28;;
66589;Laerm;53447;49.272;11.070;2022-11-13T03:42:16;41.63;38.53;43.77;;
66589;Laerm;53447;49.272;11.070;2022-11-13T03:44:42;41.62;37.84;43.61;;
66589;Laerm;53447;49.272;11.070;2022-11-13T03:47:07;42.29;40.18;43.61;;
66589;Laerm;53447;49.272;11.070;2022-11-13T03:49:32;42.41;40.03;44.04;;
66589;Laerm;53447;49.272;11.070;2022-11-13T03:51:57;40.98;37.31;42.81;;
66589;Laerm;53447;49.272;11.070;2022-11-13T03:54:22;42.54;39.96;46.73;;
66589;Laerm;53447;49.272;11.070;2022-11-13T03:56:48;41.86;39.21;43.89;;
66589;Laerm;53447;49.272;11.070;2022-11-13T03:59:13;42.68;39.48;45.68;;
66589;Laerm;53447;49.272;11.070;2022-11-13T04:01:38;42.01;39.48;43.95;;
66589;Laerm;53447;49.272;11.070;2022-11-13T04:04:03;42.41;38.42;46.15;;
66589;Laerm;53447;49.272;11.070;2022-11-13T04:06:29;42.14;38.31;44.27;;
66589;Laerm;53447;49.272;11.070;2022-11-13T04:08:54;42.66;40.72;44.56;;
66589;Laerm;53447;49.272;11.070;2022-11-13T04:11:19;42.29;39.64;43.54;;
66589;Laerm;53447;49.272;11.070;2022-11-13T04:13:44;41.68;38.93;43.61;;
66589;Laerm;53447;49.272;11.070;2022-11-13T04:16:10;42.89;39.64;45.86;;
66589;Laerm;53447;49.272;11.070;2022-11-13T04:18:35;42.09;40.03;44.36;;
66589;Laerm;53447;49.272;11.070;2022-11-13T04:21:01;42.25;39.21;47.65;;
66589;Laerm;53447;49.272;11.070;2022-11-13T04:23:27;42.35;40.03;45.47;;
66589;Laerm;53447;49.272;11.070;2022-11-13T04:25:53;42.05;39.64;43.89;;
66589;Laerm;53447;49.272;11.070;2022-11-13T04:28:18;42.12;39.21;43.61;;
66589;Laerm;53447;49.272;11.070;2022-11-13T04:30:43;42.59;40.39;43.95;;
66589;Laerm;53447;49.272;11.070;2022-11-13T04:33:09;42.04;38.93;43.77;;
66589;Laerm;53447;49.272;11.070;2022-11-13T04:35:34;42.14;38.42;46.41;;
66589;Laerm;53447;49.272;11.070;2022-11-13T04:37:59;42.34;39.56;47.96;;
66589;Laerm;53447;49.272;11.070;2022-11-13T04:40:24;42.61;39.88;45.16;;
66589;Laerm;53447;49.272;11.070;2022-11-13T04:42:50;42.50;40.03;46.76;;
66589;Laerm;53447;49.272;11.070;2022-11-13T04:45:16;42.10;39.12;44.39;;
66589;Laerm;53447;49.272;11.070;2022-11-13T04:47:42;41.96;39.56;44.13;;
66589;Laerm;53447;49.272;11.070;2022-11-13T04:50:07;42.86;41.15;45.19;;
66589;Laerm;53447;49.272;11.070;2022-11-13T04:52:32;42.80;40.72;46.88;;
66589;Laerm;53447;49.272;11.070;2022-11-13T04:54:58;41.89;38.42;46.53;;
66589;Laerm;53447;49.272;11.070;2022-11-13T04:57:23;41.53;37.84;43.30;;
66589;Laerm;53447;49.272;11.070;2022-11-13T04:59:48;41.86;39.12;43.64;;
66589;Laerm;53447;49.272;11.070;2022-11-13T05:02:14;44.58;41.54;51.04;;
66589;Laerm;53447;49.272;11.070;2022-11-13T05:04:39;42.34;39.88;44.85;;
66589;Laerm;53447;49.272;11.070;2022-11-13T05:07:04;41.56;39.39;43.01;;
66589;Laerm;53447;49.272;11.070;2022-11-13T05:09:29;42.15;39.03;43.70;;
66589;Laerm;53447;49.272;11.070;2022-11-13T05:11:55;42.80;40.59;45.88;;
66589;Laerm;53447;49.272;11.070;2022-11-13T05:14:20;43.64;40.59;64.89;;
66589;Laerm;53447;49.272;11.070;2022-11-13T05:16:45;42.11;39.21;43.54;;
66589;Laerm;53447;49.272;11.070;2022-11-13T05:19:10;51.14;40.79;69.96;;
66589;Laerm;53447;49.272;11.070;2022-11-13T05:21:36;42.67;40.25;44.83;;
66589;Laerm;53447;49.272;11.070;2022-11-13T05:24:02;43.81;40.66;48.77;;
66589;Laerm;53447;49.272;11.070;2022-11-13T05:26:28;45.18;40.85;64.97;;
66589;Laerm;53447;49.272;11.070;2022-11-13T05:28:57;42.48;40.46;51.77;;
66589;Laerm;53447;49.272;11.070;2022-11-13T05:31:23;42.23;39.72;49.25;;
66589;Laerm;53447;49.272;11.070;2022-11-13T05:33:48;42.65;40.46;49.72;;
66589;Laerm;53447;49.272;11.070;2022-11-13T05:36:14;42.64;40.72;54.24;;
66589;Laerm;53447;49.272;11.070;2022-11-13T05:38:40;42.63;40.91;56.89;;
66589;Laerm;53447;49.272;11.070;2022-11-13T05:41:06;42.85;40.18;55.13;;
66589;Laerm;53447;49.272;11.070;2022-11-13T05:43:32;42.01;39.83;44.98;;
66589;Laerm;53447;49.272;11.070;2022-11-13T05:45:58;42.61;40.72;45.41;;
66589;Laerm;53447;49.272;11.070;2022-11-13T05:48:23;42.78;40.39;48.25;;
66589;Laerm;53447;49.272;11.070;2022-11-13T05:50:48;41.68;39.39;45.80;;
66589;Laerm;53447;49.272;11.070;2022-11-13T05:53:14;42.07;38.20;43.92;;
66589;Laerm;53447;49.272;11.070;2022-11-13T05:55:39;42.65;40.91;44.04;;
66589;Laerm;53447;49.272;11.070;2022-11-13T05:58:04;50.46;40.91;67.85;;
66589;Laerm;53447;49.272;11.070;2022-11-13T06:00:29;42.58;38.53;45.23;;
66589;Laerm;53447;49.272;11.070;2022-11-13T06:02:55;41.52;38.20;53.38;;
66589;Laerm;53447;49.272;11.070;2022-11-13T06:05:20;41.71;39.39;53.13;;
66589;Laerm;53447;49.272;11.070;2022-11-13T06:07:47;42.23;39.56;57.88;;
66589;Laerm;53447;49.272;11.070;2022-11-13T06:10:13;42.85;39.03;56.03;;
66589;Laerm;53447;49.272;11.070;2022-11-13T06:12:38;44.45;39.21;58.82;;
66589;Laerm;53447;49.272;11.070;2022-11-13T06:15:03;43.17;38.83;55.95;;
66589;Laerm;53447;49.272;11.070;2022-11-13T06:17:28;45.47;40.85;59.77;;
66589;Laerm;53447;49.272;11.070;2022-11-13T06:19:54;44.84;40.79;60.47;;
66589;Laerm;53447;49.272;11.070;2022-11-13T06:22:19;46.00;38.93;64.42;;
66589;Laerm;53447;49.272;11.070;2022-11-13T06:24:44;44.27;39.48;61.83;;
66589;Laerm;53447;49.272;11.070;2022-11-13T06:27:09;43.20;39.48;59.88;;
66589;Laerm;53447;49.272;11.070;2022-11-13T06:29:35;44.44;40.46;62.97;;
66589;Laerm;53447;49.272;11.070;2022-11-13T06:32:00;42.58;40.03;57.23;;
66589;Laerm;53447;49.272;11.070;2022-11-13T06:34:25;43.33;40.25;62.14;;
66589;Laerm;53447;49.272;11.070;2022-11-13T06:36:50;42.65;40.59;55.86;;
66589;Laerm;53447;49.272;11.070;2022-11-13T06:39:15;44.00;40.59;63.98;;
66589;Laerm;53447;49.272;11.070;2022-11-13T06:41:41;43.08;40.79;61.23;;
66589;Laerm;53447;49.272;11.070;2022-11-13T06:44:06;44.27;39.80;65.81;;
66589;Laerm;53447;49.272;11.070;2022-11-13T06:46:31;45.21;39.39;67.27;;
66589;Laerm;53447;49.272;11.070;2022-11-13T06:48:57;43.79;39.88;59.19;;
66589;Laerm;53447;49.272;11.070;2022-11-13T06:51:24;50.70;39.96;80.03;;
66589;Laerm;53447;49.272;11.070;2022-11-13T06:53:50;50.89;40.03;75.12;;
66589;Laerm;53447;49.272;11.070;2022-11-13T06:56:16;48.91;39.64;68.06;;
66589;Laerm;53447;49.272;11.070;2022-11-13T06:58:41;45.11;40.11;66.49;;
66589;Laerm;53447;49.272;11.070;2022-11-13T07:01:15;42.50;39.48;60.25;;
66589;Laerm;53447;49.272;11.070;2022-11-13T07:03:41;42.94;40.53;54.47;;
66589;Laerm;53447;49.272;11.070;2022-11-13T07:06:10;42.78;40.72;53.92;;
66589;Laerm;53447;49.272;11.070;2022-11-13T07:08:39;43.04;40.66;55.32;;
66589;Laerm;53447;49.272;11.070;2022-11-13T07:11:05;51.21;40.11;69.29;;
66589;Laerm;53447;49.272;11.070;2022-11-13T07:13:31;43.06;39.29;63.74;;
66589;Laerm;53447;49.272;11.070;2022-11-13T07:16:00;51.00;39.12;70.43;;
66589;Laerm;53447;49.272;11.070;2022-11-13T07:18:25;49.60;39.88;68.37;;
66589;Laerm;53447;49.272;11.070;2022-11-13T07:20:51;42.95;39.64;60.20;;
66589;Laerm;53447;49.272;11.070;2022-11-13T07:23:16;42.74;40.32;54.07;;
66589;Laerm;53447;49.272;11.070;2022-11-13T07:25:41;43.00;40.66;51.21;;
66589;Laerm;53447;49.272;11.070;2022-11-13T07:28:06;42.91;41.09;49.87;;
66589;Laerm;53447;49.272;11.070;2022-11-13T07:30:31;42.55;39.56;53.43;;
66589;Laerm;53447;49.272;11.070;2022-11-13T07:33:00;42.97;40.39;57.18;;
66589;Laerm;53447;49.272;11.070;2022-11-13T07:35:25;43.63;40.03;59.55;;
66589;Laerm;53447;49.272;11.070;2022-11-13T07:37:53;42.72;39.80;55.99;;
66589;Laerm;53447;49.272;11.070;2022-11-13T07:40:19;51.93;40.59;72.29;;
66589;Laerm;53447;49.272;11.070;2022-11-13T07:42:44;46.43;40.79;66.53;;
66589;Laerm;53447;49.272;11.070;2022-11-13T07:45:09;43.24;41.03;51.94;;
66589;Laerm;53447;49.272;11.070;2022-11-13T07:47:34;43.41;41.26;54.61;;
66589;Laerm;53447;49.272;11.070;2022-11-13T07:50:00;43.44;40.97;59.67;;
66589;Laerm;53447;49.272;11.070;2022-11-13T07:52:25;50.19;40.79;68.23;;
66589;Laerm;53447;49.272;11.070;2022-11-13T07:54:50;43.32;41.03;55.91;;
66589;Laerm;53447;49.272;11.070;2022-11-13T07:57:15;43.36;40.72;58.75;;
66589;Laerm;53447;49.272;11.070;2022-11-13T07:59:40;44.91;40.66;62.28;;
66589;Laerm;53447;49.272;11.070;2022-11-13T08:02:07;53.37;40.66;70.69;;
66589;Laerm;53447;49.272;11.070;2022-11-13T08:04:34;45.88;41.48;60.32;;
66589;Laerm;53447;49.272;11.070;2022-11-13T08:07:00;44.18;41.26;61.84;;
66589;Laerm;53447;49.272;11.070;2022-11-13T08:09:25;43.90;41.21;58.33;;
66589;Laerm;53447;49.272;11.070;2022-11-13T08:11:50;46.67;41.84;72.55;;
66589;Laerm;53447;49.272;11.070;2022-11-13T08:14:15;49.96;41.69;69.94;;
66589;Laerm;53447;49.272;11.070;2022-11-13T08:16:40;43.25;40.91;55.87;;
66589;Laerm;53447;49.272;11.070;2022-11-13T08:19:06;43.64;41.03;57.89;;
66589;Laerm;53447;49.272;11.070;2022-11-13T08:21:31;47.74;41.15;67.00;;
66589;Laerm;53447;49.272;11.070;2022-11-13T08:23:56;61.44;41.99;88.66;;
66589;Laerm;53447;49.272;11.070;2022-11-13T08:26:21;50.89;41.48;65.69;;
66589;Laerm;53447;49.272;11.070;2022-11-13T08:28:47;51.33;41.59;68.85;;
66589;Laerm;53447;49.272;11.070;2022-11-13T08:31:13;45.25;41.54;60.79;;
66589;Laerm;53447;49.272;11.070;2022-11-13T08:33:38;44.15;40.53;55.93;;
66589;Laerm;53447;49.272;11.070;2022-11-13T08:36:04;43.08;40.66;55.01;;
66589;Laerm;53447;49.272;11.070;2022-11-13T08:38:29;51.76;41.26;70.81;;
66589;Laerm;53447;49.272;11.070;2022-11-13T08:40:55;53.54;41.43;72.59;;
66589;Laerm;53447;49.272;11.070;2022-11-13T08:43:21;43.34;41.38;56.20;;
66589;Laerm;53447;49.272;11.070;2022-11-13T08:45:46;48.08;41.54;60.05;;
66589;Laerm;53447;49.272;11.070;2022-11-13T08:48:12;54.05;44.39;71.99;;
66589;Laerm;53447;49.272;11.070;2022-11-13T08:50:37;47.26;41.21;54.95;;
66589;Laerm;53447;49.272;11.070;2022-11-13T08:53:03;46.33;40.59;61.42;;
66589;Laerm;53447;49.272;11.070;2022-11-13T08:55:29;44.14;40.53;60.83;;
66589;Laerm;53447;49.272;11.070;2022-11-13T08:57:56;45.11;40.25;68.90;;
66589;Laerm;53447;49.272;11.070;2022-11-13T09:00:22;47.99;41.19;70.93;;
66589;Laerm;53447;49.272;11.070;2022-11-13T09:02:47;44.11;40.03;61.12;;
66589;Laerm;53447;49.272;11.070;2022-11-13T09:05:17;43.20;41.26;55.98;;
66589;Laerm;53447;49.272;11.070;2022-11-13T09:07:42;51.54;40.97;71.80;;
66589;Laerm;53447;49.272;11.070;2022-11-13T09:10:07;45.66;40.85;64.71;;
66589;Laerm;53447;49.272;11.070;2022-11-13T09:12:33;47.58;40.50;67.31;;
66589;Laerm;53447;49.272;11.070;2022-11-13T09:14:58;44.21;40.85;50.73;;
66589;Laerm;53447;49.272;11.070;2022-11-13T09:17:23;46.17;41.48;61.64;;
66589;Laerm;53447;49.272;11.070;2022-11-13T09:19:48;43.68;40.79;57.48;;
66589;Laerm;53447;49.272;11.070;2022-11-13T09:22:15;44.97;41.21;56.34;;
66589;Laerm;53447;49.272;11.070;2022-11-13T09:24:40;45.33;41.26;58.65;;
66589;Laerm;53447;49.272;11.070;2022-11-13T09:27:05;45.79;41.64;60.21;;
66589;Laerm;53447;49.272;11.070;2022-11-13T09:29:31;43.45;41.26;54.87;;
66589;Laerm;53447;49.272;11.070;2022-11-13T09:31:56;42.95;40.72;52.89;;
66589;Laerm;53447;49.272;11.070;2022-11-13T09:34:21;42.89;40.66;52.69;;
66589;Laerm;53447;49.272;11.070;2022-11-13T09:36:47;42.65;40.59;50.43;;
66589;Laerm;53447;49.272;11.070;2022-11-13T09:39:12;42.54;40.59;48.80;;
66589;Laerm;53447;49.272;11.070;2022-11-13T09:41:40;42.72;40.79;51.65;;
66589;Laerm;53447;49.272;11.070;2022-11-13T09:44:12;42.54;40.50;50.97;;
66589;Laerm;53447;49.272;11.070;2022-11-13T09:46:43;48.39;41.26;59.44;;
66589;Laerm;53447;49.272;11.070;2022-11-13T09:49:16;43.40;41.15;51.56;;
66589;Laerm;53447;49.272;11.070;2022-11-13T09:51:45;42.88;40.85;52.44;;
66589;Laerm;53447;49.272;11.070;2022-11-13T09:54:13;43.75;40.39;54.21;;
66589;Laerm;53447;49.272;11.070;2022-11-13T09:56:40;49.75;40.32;76.49;;
66589;Laerm;53447;49.272;11.070;2022-11-13T10:01:48;53.00;40.72;73.57;;
66589;Laerm;53447;49.272;11.070;2022-11-13T10:04:15;50.05;40.11;68.41;;
66589;Laerm;53447;49.272;11.070;2022-11-13T10:11:59;53.30;40.97;71.06;;
66589;Laerm;53447;49.272;11.070;2022-11-13T10:14:28;49.21;40.18;59.17;;
66589;Laerm;53447;49.272;11.070;2022-11-13T10:17:00;43.43;40.66;58.21;;
66589;Laerm;53447;49.272;11.070;2022-11-13T10:22:01;42.74;40.59;52.68;;
66589;Laerm;53447;49.272;11.070;2022-11-13T10:24:29;42.94;40.59;61.92;;
66589;Laerm;53447;49.272;11.070;2022-11-13T10:26:58;43.58;40.39;62.39;;
66589;Laerm;53447;49.272;11.070;2022-11-13T10:29:23;43.22;41.03;59.61;;
66589;Laerm;53447;49.272;11.070;2022-11-13T10:31:51;43.37;41.21;59.82;;
66589;Laerm;53447;49.272;11.070;2022-11-13T10:34:17;43.50;40.59;59.89;;
66589;Laerm;53447;49.272;11.070;2022-11-13T10:39:27;47.31;41.15;63.27;;
66589;Laerm;53447;49.272;11.070;2022-11-13T10:41:52;45.74;41.35;57.87;;
66589;Laerm;53447;49.272;11.070;2022-11-13T10:46:49;51.90;41.21;71.29;;
66589;Laerm;53447;49.272;11.070;2022-11-13T10:49:19;43.21;40.85;55.68;;
66589;Laerm;53447;49.272;11.070;2022-11-13T10:51:44;44.12;41.69;58.30;;
66589;Laerm;53447;49.272;11.070;2022-11-13T10:54:21;54.32;41.38;75.09;;
66589;Laerm;53447;49.272;11.070;2022-11-13T10:56:57;42.98;40.74;51.89;;
66589;Laerm;53447;49.272;11.070;2022-11-13T10:59:23;43.12;41.38;50.83;;
66589;Laerm;53447;49.272;11.070;2022-11-13T11:01:49;43.90;41.15;53.75;;
66589;Laerm;53447;49.272;11.070;2022-11-13T11:04:22;51.42;40.85;71.57;;
66589;Laerm;53447;49.272;11.070;2022-11-13T11:06:48;48.01;39.96;68.72;;
66589;Laerm;53447;49.272;11.070;2022-11-13T11:09:16;46.26;39.80;67.47;;
66589;Laerm;53447;49.272;11.070;2022-11-13T11:11:56;42.27;39.96;54.42;;
66589;Laerm;53447;49.272;11.070;2022-11-13T11:17:20;51.85;40.46;72.87;;
66589;Laerm;53447;49.272;11.070;2022-11-13T11:19:48;51.37;41.15;70.34;;
66589;Laerm;53447;49.272;11.070;2022-11-13T11:22:18;42.47;40.32;47.38;;
66589;Laerm;53447;49.272;11.070;2022-11-13T11:24:50;42.45;40.32;52.19;;
66589;Laerm;53447;49.272;11.070;2022-11-13T11:27:27;43.66;40.18;69.66;;
66589;Laerm;53447;49.272;11.070;2022-11-13T11:30:01;56.98;40.25;76.11;;
66589;Laerm;53447;49.272;11.070;2022-11-13T11:35:47;43.66;40.32;62.35;;
66589;Laerm;53447;49.272;11.070;2022-11-13T11:38:28;51.22;39.88;72.63;;
66589;Laerm;53447;49.272;11.070;2022-11-13T11:41:12;54.01;39.88;70.53;;
66589;Laerm;53447;49.272;11.070;2022-11-13T11:43:52;42.25;39.72;51.18;;
66589;Laerm;53447;49.272;11.070;2022-11-13T11:46:26;42.68;40.39;57.15;;
66589;Laerm;53447;49.272;11.070;2022-11-13T11:48:54;42.58;39.48;65.63;;
66589;Laerm;53447;49.272;11.070;2022-11-13T11:51:30;41.86;39.64;51.96;;
66589;Laerm;53447;49.272;11.070;2022-11-13T11:54:01;43.79;39.80;54.07;;
66589;Laerm;53447;49.272;11.070;2022-11-13T11:56:38;43.17;39.88;53.43;;
66589;Laerm;53447;49.272;11.070;2022-11-13T12:11:54;41.61;39.12;43.12;;
66589;Laerm;53447;49.272;11.070;2022-11-13T12:16:55;42.09;39.88;52.53;;
66589;Laerm;53447;49.272;11.070;2022-11-13T12:29:39;44.98;40.11;73.78;;
66589;Laerm;53447;49.272;11.070;2022-11-13T12:37:10;42.65;39.64;57.62;;
66589;Laerm;53447;49.272;11.070;2022-11-13T12:39:39;43.56;40.03;55.74;;
66589;Laerm;53447;49.272;11.070;2022-11-13T12:42:13;42.26;38.08;52.46;;
66589;Laerm;53447;49.272;11.070;2022-11-13T12:44:47;54.11;39.12;72.87;;
66589;Laerm;53447;49.272;11.070;2022-11-13T12:47:14;53.25;39.21;72.34;;
66589;Laerm;53447;49.272;11.070;2022-11-13T12:49:40;50.60;39.88;71.62;;
66589;Laerm;53447;49.272;11.070;2022-11-13T12:52:19;44.04;39.72;57.95;;
66589;Laerm;53447;49.272;11.070;2022-11-13T12:54:46;47.58;37.45;66.12;;
66589;Laerm;53447;49.272;11.070;2022-11-13T12:59:50;53.70;39.39;74.03;;
66589;Laerm;53447;49.272;11.070;2022-11-13T13:17:26;51.86;40.46;72.40;;
66589;Laerm;53447;49.272;11.070;2022-11-13T13:19:58;55.08;39.12;74.48;;
66589;Laerm;53447;49.272;11.070;2022-11-13T13:22:41;41.99;39.88;51.84;;
66589;Laerm;53447;49.272;11.070;2022-11-13T13:30:23;52.63;40.18;71.89;;
66589;Laerm;53447;49.272;11.070;2022-11-13T13:33:12;41.73;39.12;48.87;;
66589;Laerm;53447;49.272;11.070;2022-11-13T13:38:28;42.24;37.84;56.09;;
66589;Laerm;53447;49.272;11.070;2022-11-13T13:41:06;42.79;39.64;50.26;;
66589;Laerm;53447;49.272;11.070;2022-11-13T13:43:39;45.50;40.59;62.27;;
66589;Laerm;53447;49.272;11.070;2022-11-13T13:48:32;44.22;39.21;62.45;;
66589;Laerm;53447;49.272;11.070;2022-11-13T13:51:01;44.17;40.85;59.41;;
66589;Laerm;53447;49.272;11.070;2022-11-13T13:53:28;42.50;40.53;56.76;;
66589;Laerm;53447;49.272;11.070;2022-11-13T13:55:55;42.51;39.30;48.79;;
66589;Laerm;53447;49.272;11.070;2022-11-13T13:58:33;52.10;40.39;76.15;;
66589;Laerm;53447;49.272;11.070;2022-11-13T14:01:00;49.04;40.03;72.60;;
66589;Laerm;53447;49.272;11.070;2022-11-13T14:03:25;51.44;39.96;69.67;;
66589;Laerm;53447;49.272;11.070;2022-11-13T14:05:53;42.24;39.39;47.56;;
66589;Laerm;53447;49.272;11.070;2022-11-13T14:08:22;45.20;39.88;56.26;;
66589;Laerm;53447;49.272;11.070;2022-11-13T14:10:48;42.43;38.42;59.00;;
66589;Laerm;53447;49.272;11.070;2022-11-13T14:13:21;51.61;40.25;68.16;;
66589;Laerm;53447;49.272;11.070;2022-11-13T14:15:46;49.86;40.32;77.78;;
66589;Laerm;53447;49.272;11.070;2022-11-13T14:18:15;50.71;39.12;69.31;;
66589;Laerm;53447;49.272;11.070;2022-11-13T14:20:45;55.51;40.85;73.65;;
66589;Laerm;53447;49.272;11.070;2022-11-13T14:23:12;44.85;40.53;64.94;;
66589;Laerm;53447;49.272;11.070;2022-11-13T14:25:39;43.09;40.11;52.35;;
66589;Laerm;53447;49.272;11.070;2022-11-13T14:28:09;49.06;40.85;67.64;;
66589;Laerm;53447;49.272;11.070;2022-11-13T14:30:36;44.48;40.32;56.35;;
66589;Laerm;53447;49.272;11.070;2022-11-13T14:33:01;48.57;41.21;63.79;;
66589;Laerm;53447;49.272;11.070;2022-11-13T14:35:27;51.07;40.18;69.53;;
66589;Laerm;53447;49.272;11.070;2022-11-13T14:37:53;46.27;39.72;64.75;;
66589;Laerm;53447;49.272;11.070;2022-11-13T14:40:23;45.93;41.32;59.56;;
66589;Laerm;53447;49.272;11.070;2022-11-13T14:42:51;55.94;40.25;73.98;;
66589;Laerm;53447;49.272;11.070;2022-11-13T14:47:55;42.12;38.93;48.67;;
66589;Laerm;53447;49.272;11.070;2022-11-13T14:55:30;52.34;38.83;71.36;;
66589;Laerm;53447;49.272;11.070;2022-11-13T14:57:56;42.70;40.39;55.09;;
66589;Laerm;53447;49.272;11.070;2022-11-13T15:00:25;42.54;39.88;52.11;;
66589;Laerm;53447;49.272;11.070;2022-11-13T15:02:51;43.45;40.39;56.34;;